sensor_id;sensor_type;location;lat;lon;timestamp;P1;P2;P0
34240;PMS7003;20503;50.200;19.508;2023-03-12T00:01:27;19;11;8
34240;PMS7003;20503;50.200;19.508;2023-03-12T00:06:35;21;18;13
34240;PMS7003;20503;50.200;19.508;2023-03-12T00:11:42;16;11;8
34240;PMS7003;20503;50.200;19.508;2023-03-12T00:16:50;15;10;8
34240;PMS7003;20503;50.200;19.508;2023-03-12T00:21:58;12;10;7
34240;PMS7003;20503;50.200;19.508;2023-03-12T00:27:05;19;12;6
34240;PMS7003;20503;50.200;19.508;2023-03-12T00:32:13;15;10;6
34240;PMS7003;20503;50.200;19.508;2023-03-12T00:37:21;12;7;5
34240;PMS7003;20503;50.200;19.508;2023-03-12T00:42:29;11;8;5
34240;PMS7003;20503;50.200;19.508;2023-03-12T00:47:36;13;10;8
34240;PMS7003;20503;50.200;19.508;2023-03-12T00:52:44;15;7;6
34240;PMS7003;20503;50.200;19.508;2023-03-12T00:57:51;12;10;7
34240;PMS7003;20503;50.200;19.508;2023-03-12T01:02:59;12;9;6
34240;PMS7003;20503;50.200;19.508;2023-03-12T01:08:07;10;7;6
34240;PMS7003;20503;50.200;19.508;2023-03-12T01:13:14;9;9;6
34240;PMS7003;20503;50.200;19.508;2023-03-12T01:18:22;10;8;6
34240;PMS7003;20503;50.200;19.508;2023-03-12T01:23:30;17;10;6
34240;PMS7003;20503;50.200;19.508;2023-03-12T01:28:37;13;11;8
34240;PMS7003;20503;50.200;19.508;2023-03-12T01:33:49;13;9;7
34240;PMS7003;20503;50.200;19.508;2023-03-12T01:38:54;17;11;6
34240;PMS7003;20503;50.200;19.508;2023-03-12T01:44:01;11;8;6
34240;PMS7003;20503;50.200;19.508;2023-03-12T01:49:09;15;8;5
34240;PMS7003;20503;50.200;19.508;2023-03-12T01:54:18;10;8;5
34240;PMS7003;20503;50.200;19.508;2023-03-12T01:59:29;12;8;6
34240;PMS7003;20503;50.200;19.508;2023-03-12T02:04:32;19;10;6
34240;PMS7003;20503;50.200;19.508;2023-03-12T02:09:40;17;10;7
34240;PMS7003;20503;50.200;19.508;2023-03-12T02:14:47;15;11;7
34240;PMS7003;20503;50.200;19.508;2023-03-12T02:30:23;14;13;6
34240;PMS7003;20503;50.200;19.508;2023-03-12T02:35:26;14;12;8
34240;PMS7003;20503;50.200;19.508;2023-03-12T02:40:28;11;9;7
34240;PMS7003;20503;50.200;19.508;2023-03-12T02:45:36;23;11;7
34240;PMS7003;20503;50.200;19.508;2023-03-12T02:50:42;19;10;6
34240;PMS7003;20503;50.200;19.508;2023-03-12T02:55:49;13;9;5
34240;PMS7003;20503;50.200;19.508;2023-03-12T03:00:57;14;11;6
34240;PMS7003;20503;50.200;19.508;2023-03-12T03:06:04;15;9;5
34240;PMS7003;20503;50.200;19.508;2023-03-12T03:11:12;13;8;5
34240;PMS7003;20503;50.200;19.508;2023-03-12T03:16:20;9;7;5
34240;PMS7003;20503;50.200;19.508;2023-03-12T03:21:27;12;9;5
34240;PMS7003;20503;50.200;19.508;2023-03-12T03:26:35;11;10;6
34240;PMS7003;20503;50.200;19.508;2023-03-12T03:31:43;18;9;6
34240;PMS7003;20503;50.200;19.508;2023-03-12T03:36:51;9;9;6
34240;PMS7003;20503;50.200;19.508;2023-03-12T03:41:58;14;9;7
34240;PMS7003;20503;50.200;19.508;2023-03-12T03:47:06;17;12;9
34240;PMS7003;20503;50.200;19.508;2023-03-12T03:52:14;17;11;7
34240;PMS7003;20503;50.200;19.508;2023-03-12T03:57:22;17;11;8
34240;PMS7003;20503;50.200;19.508;2023-03-12T04:02:29;15;14;7
34240;PMS7003;20503;50.200;19.508;2023-03-12T04:07:38;19;18;9
34240;PMS7003;20503;50.200;19.508;2023-03-12T04:12:45;18;12;9
34240;PMS7003;20503;50.200;19.508;2023-03-12T04:17:53;15;13;9
34240;PMS7003;20503;50.200;19.508;2023-03-12T04:23:01;17;11;7
34240;PMS7003;20503;50.200;19.508;2023-03-12T04:28:08;14;10;7
34240;PMS7003;20503;50.200;19.508;2023-03-12T04:33:17;19;14;8
34240;PMS7003;20503;50.200;19.508;2023-03-12T04:38:25;23;14;9
34240;PMS7003;20503;50.200;19.508;2023-03-12T04:43:33;22;14;9
34240;PMS7003;20503;50.200;19.508;2023-03-12T04:48:40;18;15;8
34240;PMS7003;20503;50.200;19.508;2023-03-12T04:53:48;16;12;9
34240;PMS7003;20503;50.200;19.508;2023-03-12T04:58:56;26;16;10
34240;PMS7003;20503;50.200;19.508;2023-03-12T05:04:04;16;12;6
34240;PMS7003;20503;50.200;19.508;2023-03-12T05:09:12;15;11;8
34240;PMS7003;20503;50.200;19.508;2023-03-12T05:14:20;16;13;8
34240;PMS7003;20503;50.200;19.508;2023-03-12T05:19:28;14;13;8
34240;PMS7003;20503;50.200;19.508;2023-03-12T05:24:36;18;13;7
34240;PMS7003;20503;50.200;19.508;2023-03-12T05:29:44;15;9;7
34240;PMS7003;20503;50.200;19.508;2023-03-12T05:34:52;17;13;7
34240;PMS7003;20503;50.200;19.508;2023-03-12T05:40:00;14;9;6
34240;PMS7003;20503;50.200;19.508;2023-03-12T05:45:08;15;12;8
34240;PMS7003;20503;50.200;19.508;2023-03-12T05:50:15;26;23;14
34240;PMS7003;20503;50.200;19.508;2023-03-12T05:55:23;17;13;8
34240;PMS7003;20503;50.200;19.508;2023-03-12T06:00:32;27;18;12
34240;PMS7003;20503;50.200;19.508;2023-03-12T06:05:39;19;15;8
34240;PMS7003;20503;50.200;19.508;2023-03-12T06:10:49;21;15;11
34240;PMS7003;20503;50.200;19.508;2023-03-12T06:15:59;22;15;9
34240;PMS7003;20503;50.200;19.508;2023-03-12T06:26:13;15;11;8
34240;PMS7003;20503;50.200;19.508;2023-03-12T06:31:18;15;14;10
34240;PMS7003;20503;50.200;19.508;2023-03-12T06:36:25;17;12;9
34240;PMS7003;20503;50.200;19.508;2023-03-12T06:41:33;15;12;8
34240;PMS7003;20503;50.200;19.508;2023-03-12T06:46:41;18;15;8
34240;PMS7003;20503;50.200;19.508;2023-03-12T06:51:49;24;17;8
34240;PMS7003;20503;50.200;19.508;2023-03-12T06:56:56;19;14;9
34240;PMS7003;20503;50.200;19.508;2023-03-12T07:02:05;21;12;8
34240;PMS7003;20503;50.200;19.508;2023-03-12T07:07:12;12;12;9
34240;PMS7003;20503;50.200;19.508;2023-03-12T07:12:20;24;16;11
34240;PMS7003;20503;50.200;19.508;2023-03-12T07:17:27;15;15;8
34240;PMS7003;20503;50.200;19.508;2023-03-12T07:22:35;17;13;9
34240;PMS7003;20503;50.200;19.508;2023-03-12T07:27:42;15;12;8
34240;PMS7003;20503;50.200;19.508;2023-03-12T07:32:50;14;11;8
34240;PMS7003;20503;50.200;19.508;2023-03-12T07:37:58;16;12;7
34240;PMS7003;20503;50.200;19.508;2023-03-12T07:43:05;10;9;6
34240;PMS7003;20503;50.200;19.508;2023-03-12T07:48:13;13;10;8
34240;PMS7003;20503;50.200;19.508;2023-03-12T07:53:21;17;12;9
34240;PMS7003;20503;50.200;19.508;2023-03-12T07:58:29;20;13;11
34240;PMS7003;20503;50.200;19.508;2023-03-12T08:03:37;12;12;10
34240;PMS7003;20503;50.200;19.508;2023-03-12T08:08:45;24;16;11
34240;PMS7003;20503;50.200;19.508;2023-03-12T08:13:53;28;20;11
34240;PMS7003;20503;50.200;19.508;2023-03-12T08:19:01;19;16;9
34240;PMS7003;20503;50.200;19.508;2023-03-12T08:24:09;16;12;8
34240;PMS7003;20503;50.200;19.508;2023-03-12T08:29:17;9;9;5
34240;PMS7003;20503;50.200;19.508;2023-03-12T08:34:24;10;9;5
34240;PMS7003;20503;50.200;19.508;2023-03-12T08:39:32;8;7;5
34240;PMS7003;20503;50.200;19.508;2023-03-12T08:44:40;8;6;5
34240;PMS7003;20503;50.200;19.508;2023-03-12T08:49:48;7;7;4
34240;PMS7003;20503;50.200;19.508;2023-03-12T08:54:55;9;7;6
34240;PMS7003;20503;50.200;19.508;2023-03-12T09:00:03;10;6;4
34240;PMS7003;20503;50.200;19.508;2023-03-12T09:05:14;9;7;4
34240;PMS7003;20503;50.200;19.508;2023-03-12T09:10:19;7;6;5
34240;PMS7003;20503;50.200;19.508;2023-03-12T09:15:26;10;7;6
34240;PMS7003;20503;50.200;19.508;2023-03-12T09:20:34;8;6;5
34240;PMS7003;20503;50.200;19.508;2023-03-12T09:25:45;7;7;6
34240;PMS7003;20503;50.200;19.508;2023-03-12T09:30:50;15;12;7
34240;PMS7003;20503;50.200;19.508;2023-03-12T09:35:58;9;7;6
34240;PMS7003;20503;50.200;19.508;2023-03-12T09:41:10;7;5;3
34240;PMS7003;20503;50.200;19.508;2023-03-12T09:46:20;6;5;4
34240;PMS7003;20503;50.200;19.508;2023-03-12T09:56:35;9;8;6
34240;PMS7003;20503;50.200;19.508;2023-03-12T10:01:41;8;5;4
34240;PMS7003;20503;50.200;19.508;2023-03-12T10:27:46;9;8;5
34240;PMS7003;20503;50.200;19.508;2023-03-12T10:32:50;6;6;4
34240;PMS7003;20503;50.200;19.508;2023-03-12T10:38:00;8;7;4
34240;PMS7003;20503;50.200;19.508;2023-03-12T10:43:03;8;7;4
34240;PMS7003;20503;50.200;19.508;2023-03-12T10:48:08;10;7;5
34240;PMS7003;20503;50.200;19.508;2023-03-12T10:58:24;9;9;6
34240;PMS7003;20503;50.200;19.508;2023-03-12T11:03:32;12;9;6
34240;PMS7003;20503;50.200;19.508;2023-03-12T11:08:37;14;10;8
34240;PMS7003;20503;50.200;19.508;2023-03-12T11:13:40;15;10;8
34240;PMS7003;20503;50.200;19.508;2023-03-12T11:24:02;11;8;4
34240;PMS7003;20503;50.200;19.508;2023-03-12T11:34:24;14;11;6
34240;PMS7003;20503;50.200;19.508;2023-03-12T11:39:35;11;9;6
34240;PMS7003;20503;50.200;19.508;2023-03-12T12:00:47;9;7;5
34240;PMS7003;20503;50.200;19.508;2023-03-12T12:11:02;12;9;5
34240;PMS7003;20503;50.200;19.508;2023-03-12T12:21:27;10;8;6
34240;PMS7003;20503;50.200;19.508;2023-03-12T12:26:39;10;6;4
34240;PMS7003;20503;50.200;19.508;2023-03-12T12:31:55;11;8;6
34240;PMS7003;20503;50.200;19.508;2023-03-12T12:42:12;9;5;4
34240;PMS7003;20503;50.200;19.508;2023-03-12T12:47:18;9;8;6
34240;PMS7003;20503;50.200;19.508;2023-03-12T12:52:27;6;4;4
34240;PMS7003;20503;50.200;19.508;2023-03-12T13:02:44;6;6;4
34240;PMS7003;20503;50.200;19.508;2023-03-12T13:07:48;7;6;5
34240;PMS7003;20503;50.200;19.508;2023-03-12T13:12:51;7;5;4
34240;PMS7003;20503;50.200;19.508;2023-03-12T13:18:00;7;4;3
34240;PMS7003;20503;50.200;19.508;2023-03-12T13:28:29;9;7;5
34240;PMS7003;20503;50.200;19.508;2023-03-12T13:33:38;12;9;6
34240;PMS7003;20503;50.200;19.508;2023-03-12T13:39:16;33;21;13
34240;PMS7003;20503;50.200;19.508;2023-03-12T13:43:55;25;13;8
34240;PMS7003;20503;50.200;19.508;2023-03-12T13:48:58;19;15;11
34240;PMS7003;20503;50.200;19.508;2023-03-12T13:54:03;22;17;11
34240;PMS7003;20503;50.200;19.508;2023-03-12T13:59:05;9;8;6
34240;PMS7003;20503;50.200;19.508;2023-03-12T14:04:17;17;14;8
34240;PMS7003;20503;50.200;19.508;2023-03-12T14:09:29;12;9;7
34240;PMS7003;20503;50.200;19.508;2023-03-12T14:14:47;11;9;7
34240;PMS7003;20503;50.200;19.508;2023-03-12T14:19:58;15;10;6
34240;PMS7003;20503;50.200;19.508;2023-03-12T14:25:12;12;7;6
34240;PMS7003;20503;50.200;19.508;2023-03-12T14:30:24;15;9;6
34240;PMS7003;20503;50.200;19.508;2023-03-12T14:35:36;13;9;6
34240;PMS7003;20503;50.200;19.508;2023-03-12T14:45:58;7;7;5
34240;PMS7003;20503;50.200;19.508;2023-03-12T14:51:02;7;7;5
34240;PMS7003;20503;50.200;19.508;2023-03-12T14:56:11;10;6;5
34240;PMS7003;20503;50.200;19.508;2023-03-12T15:01:31;12;7;4
34240;PMS7003;20503;50.200;19.508;2023-03-12T15:11:53;8;8;5
34240;PMS7003;20503;50.200;19.508;2023-03-12T15:16:57;8;6;4
34240;PMS7003;20503;50.200;19.508;2023-03-12T15:21:59;9;5;5
34240;PMS7003;20503;50.200;19.508;2023-03-12T15:32:17;7;6;5
34240;PMS7003;20503;50.200;19.508;2023-03-12T15:37:24;6;6;4
34240;PMS7003;20503;50.200;19.508;2023-03-12T15:42:39;10;5;4
34240;PMS7003;20503;50.200;19.508;2023-03-12T15:47:43;11;11;8
34240;PMS7003;20503;50.200;19.508;2023-03-12T15:58:02;12;8;5
34240;PMS7003;20503;50.200;19.508;2023-03-12T16:03:18;8;5;4
34240;PMS7003;20503;50.200;19.508;2023-03-12T16:08:25;8;6;4
34240;PMS7003;20503;50.200;19.508;2023-03-12T16:13:32;8;7;6
34240;PMS7003;20503;50.200;19.508;2023-03-12T16:18:34;12;8;6
34240;PMS7003;20503;50.200;19.508;2023-03-12T16:23:35;13;7;5
34240;PMS7003;20503;50.200;19.508;2023-03-12T16:28:36;17;12;10
34240;PMS7003;20503;50.200;19.508;2023-03-12T16:33:38;21;14;9
34240;PMS7003;20503;50.200;19.508;2023-03-12T16:38:41;25;22;12
34240;PMS7003;20503;50.200;19.508;2023-03-12T16:43:44;23;15;9
34240;PMS7003;20503;50.200;19.508;2023-03-12T16:48:50;21;15;10
34240;PMS7003;20503;50.200;19.508;2023-03-12T16:53:55;26;18;12
34240;PMS7003;20503;50.200;19.508;2023-03-12T16:59:00;35;22;16
34240;PMS7003;20503;50.200;19.508;2023-03-12T17:04:05;39;33;16
34240;PMS7003;20503;50.200;19.508;2023-03-12T17:09:07;47;36;20
34240;PMS7003;20503;50.200;19.508;2023-03-12T17:19:18;37;27;18
34240;PMS7003;20503;50.200;19.508;2023-03-12T17:24:19;35;27;19
34240;PMS7003;20503;50.200;19.508;2023-03-12T17:29:27;27;19;12
34240;PMS7003;20503;50.200;19.508;2023-03-12T17:34:28;20;16;10
34240;PMS7003;20503;50.200;19.508;2023-03-12T17:39:30;17;14;10
34240;PMS7003;20503;50.200;19.508;2023-03-12T17:44:31;25;20;12
34240;PMS7003;20503;50.200;19.508;2023-03-12T17:49:35;15;14;9
34240;PMS7003;20503;50.200;19.508;2023-03-12T17:54:36;23;19;12
34240;PMS7003;20503;50.200;19.508;2023-03-12T17:59:38;12;10;7
34240;PMS7003;20503;50.200;19.508;2023-03-12T18:05:00;15;12;9
34240;PMS7003;20503;50.200;19.508;2023-03-12T18:09:54;20;18;10
34240;PMS7003;20503;50.200;19.508;2023-03-12T18:14:56;17;14;10
34240;PMS7003;20503;50.200;19.508;2023-03-12T18:22:57;14;13;10
34240;PMS7003;20503;50.200;19.508;2023-03-12T18:28:05;19;14;9
34240;PMS7003;20503;50.200;19.508;2023-03-12T18:33:13;20;15;9
34240;PMS7003;20503;50.200;19.508;2023-03-12T18:38:21;23;14;9
34240;PMS7003;20503;50.200;19.508;2023-03-12T18:43:28;24;15;9
34240;PMS7003;20503;50.200;19.508;2023-03-12T18:48:36;22;16;12
34240;PMS7003;20503;50.200;19.508;2023-03-12T18:53:44;19;13;8
34240;PMS7003;20503;50.200;19.508;2023-03-12T18:58:52;25;20;10
34240;PMS7003;20503;50.200;19.508;2023-03-12T19:04:00;25;19;13
34240;PMS7003;20503;50.200;19.508;2023-03-12T19:09:08;19;18;12
34240;PMS7003;20503;50.200;19.508;2023-03-12T19:14:16;18;16;10
34240;PMS7003;20503;50.200;19.508;2023-03-12T19:19:24;29;20;12
34240;PMS7003;20503;50.200;19.508;2023-03-12T19:24:32;25;17;12
34240;PMS7003;20503;50.200;19.508;2023-03-12T19:29:40;23;19;13
34240;PMS7003;20503;50.200;19.508;2023-03-12T19:34:47;26;21;14
34240;PMS7003;20503;50.200;19.508;2023-03-12T19:39:57;22;19;13
34240;PMS7003;20503;50.200;19.508;2023-03-12T19:45:04;25;19;10
34240;PMS7003;20503;50.200;19.508;2023-03-12T19:50:12;27;15;10
34240;PMS7003;20503;50.200;19.508;2023-03-12T19:55:20;21;14;10
34240;PMS7003;20503;50.200;19.508;2023-03-12T20:00:29;19;13;9
34240;PMS7003;20503;50.200;19.508;2023-03-12T20:05:36;18;15;10
34240;PMS7003;20503;50.200;19.508;2023-03-12T20:10:44;17;15;10
34240;PMS7003;20503;50.200;19.508;2023-03-12T20:15:52;25;17;11
34240;PMS7003;20503;50.200;19.508;2023-03-12T20:21:00;24;18;12
34240;PMS7003;20503;50.200;19.508;2023-03-12T20:26:08;18;15;11
34240;PMS7003;20503;50.200;19.508;2023-03-12T20:31:15;15;13;9
34240;PMS7003;20503;50.200;19.508;2023-03-12T20:36:23;21;13;8
34240;PMS7003;20503;50.200;19.508;2023-03-12T20:41:31;17;13;9
34240;PMS7003;20503;50.200;19.508;2023-03-12T20:46:38;18;14;7
34240;PMS7003;20503;50.200;19.508;2023-03-12T20:51:46;20;13;10
34240;PMS7003;20503;50.200;19.508;2023-03-12T20:56:55;21;17;11
34240;PMS7003;20503;50.200;19.508;2023-03-12T21:02:02;17;12;8
34240;PMS7003;20503;50.200;19.508;2023-03-12T21:07:10;18;14;9
34240;PMS7003;20503;50.200;19.508;2023-03-12T21:12:18;23;14;9
34240;PMS7003;20503;50.200;19.508;2023-03-12T21:17:26;63;45;26
34240;PMS7003;20503;50.200;19.508;2023-03-12T21:22:34;23;12;9
34240;PMS7003;20503;50.200;19.508;2023-03-12T21:27:41;27;26;16
34240;PMS7003;20503;50.200;19.508;2023-03-12T21:32:49;19;14;8
34240;PMS7003;20503;50.200;19.508;2023-03-12T21:37:57;15;11;8
34240;PMS7003;20503;50.200;19.508;2023-03-12T21:43:06;24;10;8
34240;PMS7003;20503;50.200;19.508;2023-03-12T21:48:13;16;11;8
34240;PMS7003;20503;50.200;19.508;2023-03-12T21:53:21;15;10;8
34240;PMS7003;20503;50.200;19.508;2023-03-12T21:58:30;24;13;8
34240;PMS7003;20503;50.200;19.508;2023-03-12T22:03:37;17;11;7
34240;PMS7003;20503;50.200;19.508;2023-03-12T22:08:45;19;11;7
34240;PMS7003;20503;50.200;19.508;2023-03-12T22:13:53;14;10;8
34240;PMS7003;20503;50.200;19.508;2023-03-12T22:19:00;19;12;7
34240;PMS7003;20503;50.200;19.508;2023-03-12T22:24:09;22;12;8
34240;PMS7003;20503;50.200;19.508;2023-03-12T22:29:16;12;12;8
34240;PMS7003;20503;50.200;19.508;2023-03-12T22:34:23;18;12;7
34240;PMS7003;20503;50.200;19.508;2023-03-12T22:39:31;21;14;7
34240;PMS7003;20503;50.200;19.508;2023-03-12T22:44:39;21;14;7
34240;PMS7003;20503;50.200;19.508;2023-03-12T22:49:47;15;12;9
34240;PMS7003;20503;50.200;19.508;2023-03-12T22:54:56;14;9;7
34240;PMS7003;20503;50.200;19.508;2023-03-12T23:00:06;12;10;7
34240;PMS7003;20503;50.200;19.508;2023-03-12T23:05:12;12;8;7
34240;PMS7003;20503;50.200;19.508;2023-03-12T23:10:18;13;8;6
34240;PMS7003;20503;50.200;19.508;2023-03-12T23:15:26;10;9;7
34240;PMS7003;20503;50.200;19.508;2023-03-12T23:20:33;14;11;8
34240;PMS7003;20503;50.200;19.508;2023-03-12T23:25:41;15;9;6
34240;PMS7003;20503;50.200;19.508;2023-03-12T23:36:01;17;12;7
34240;PMS7003;20503;50.200;19.508;2023-03-12T23:41:12;14;10;7
34240;PMS7003;20503;50.200;19.508;2023-03-12T23:46:17;14;10;7
34240;PMS7003;20503;50.200;19.508;2023-03-12T23:51:21;17;9;7
34240;PMS7003;20503;50.200;19.508;2023-03-12T23:56:35;9;7;5
